sensor_id;sensor_type;location;lat;lon;timestamp;P1;durP1;ratioP1;P2;durP2;ratioP2
30948;SDS011;17637;51.984;21.208;2022-10-20T00:01:23;13.63;;;9.23;;
30948;SDS011;17637;51.984;21.208;2022-10-20T00:03:54;16.52;;;10.50;;
30948;SDS011;17637;51.984;21.208;2022-10-20T00:06:23;15.52;;;10.80;;
30948;SDS011;17637;51.984;21.208;2022-10-20T00:08:53;14.13;;;10.85;;
30948;SDS011;17637;51.984;21.208;2022-10-20T00:11:21;15.40;;;10.93;;
30948;SDS011;17637;51.984;21.208;2022-10-20T00:13:50;19.08;;;12.73;;
30948;SDS011;17637;51.984;21.208;2022-10-20T00:16:19;20.10;;;12.02;;
30948;SDS011;17637;51.984;21.208;2022-10-20T00:18:47;18.23;;;13.23;;
30948;SDS011;17637;51.984;21.208;2022-10-20T00:21:16;17.38;;;11.43;;
30948;SDS011;17637;51.984;21.208;2022-10-20T00:23:46;15.90;;;9.23;;
30948;SDS011;17637;51.984;21.208;2022-10-20T00:26:14;17.48;;;10.10;;
30948;SDS011;17637;51.984;21.208;2022-10-20T00:28:43;19.88;;;10.57;;
30948;SDS011;17637;51.984;21.208;2022-10-20T00:31:11;14.23;;;9.13;;
30948;SDS011;17637;51.984;21.208;2022-10-20T00:33:39;14.25;;;9.27;;
30948;SDS011;17637;51.984;21.208;2022-10-20T00:36:08;16.65;;;11.02;;
30948;SDS011;17637;51.984;21.208;2022-10-20T00:38:38;14.45;;;9.57;;
30948;SDS011;17637;51.984;21.208;2022-10-20T00:41:05;18.25;;;12.05;;
30948;SDS011;17637;51.984;21.208;2022-10-20T00:46:10;19.25;;;12.05;;
30948;SDS011;17637;51.984;21.208;2022-10-20T00:48:39;14.60;;;10.50;;
30948;SDS011;17637;51.984;21.208;2022-10-20T00:51:11;16.58;;;10.80;;
30948;SDS011;17637;51.984;21.208;2022-10-20T00:53:42;16.55;;;10.60;;
30948;SDS011;17637;51.984;21.208;2022-10-20T00:56:10;20.52;;;13.65;;
30948;SDS011;17637;51.984;21.208;2022-10-20T00:58:38;18.15;;;13.73;;
30948;SDS011;17637;51.984;21.208;2022-10-20T01:01:05;22.33;;;14.25;;
30948;SDS011;17637;51.984;21.208;2022-10-20T01:03:38;20.33;;;12.77;;
30948;SDS011;17637;51.984;21.208;2022-10-20T01:06:12;17.10;;;13.68;;
30948;SDS011;17637;51.984;21.208;2022-10-20T01:09:00;23.90;;;15.50;;
30948;SDS011;17637;51.984;21.208;2022-10-20T01:12:12;23.25;;;15.90;;
30948;SDS011;17637;51.984;21.208;2022-10-20T01:20:06;19.58;;;12.95;;
30948;SDS011;17637;51.984;21.208;2022-10-20T01:31:04;20.88;;;11.07;;
30948;SDS011;17637;51.984;21.208;2022-10-20T01:33:53;15.90;;;10.20;;
30948;SDS011;17637;51.984;21.208;2022-10-20T01:39:16;19.00;;;11.60;;
30948;SDS011;17637;51.984;21.208;2022-10-20T01:41:50;20.60;;;12.25;;
30948;SDS011;17637;51.984;21.208;2022-10-20T01:46:46;14.93;;;11.63;;
30948;SDS011;17637;51.984;21.208;2022-10-20T01:49:14;20.85;;;11.70;;
30948;SDS011;17637;51.984;21.208;2022-10-20T01:51:42;18.05;;;10.65;;
30948;SDS011;17637;51.984;21.208;2022-10-20T01:54:26;20.52;;;12.80;;
30948;SDS011;17637;51.984;21.208;2022-10-20T01:59:59;18.45;;;12.07;;
30948;SDS011;17637;51.984;21.208;2022-10-20T02:03:19;14.95;;;9.50;;
30948;SDS011;17637;51.984;21.208;2022-10-20T02:11:18;17.05;;;10.95;;
30948;SDS011;17637;51.984;21.208;2022-10-20T02:14:05;18.45;;;12.23;;
30948;SDS011;17637;51.984;21.208;2022-10-20T02:16:37;14.80;;;10.00;;
30948;SDS011;17637;51.984;21.208;2022-10-20T02:19:09;23.15;;;14.10;;
30948;SDS011;17637;51.984;21.208;2022-10-20T02:21:38;22.95;;;15.75;;
30948;SDS011;17637;51.984;21.208;2022-10-20T02:24:06;16.90;;;12.95;;
30948;SDS011;17637;51.984;21.208;2022-10-20T02:26:36;22.63;;;14.95;;
30948;SDS011;17637;51.984;21.208;2022-10-20T02:29:09;22.67;;;14.68;;
30948;SDS011;17637;51.984;21.208;2022-10-20T02:31:42;21.77;;;14.20;;
30948;SDS011;17637;51.984;21.208;2022-10-20T02:34:10;19.48;;;12.45;;
30948;SDS011;17637;51.984;21.208;2022-10-20T02:36:39;21.83;;;13.02;;
30948;SDS011;17637;51.984;21.208;2022-10-20T02:39:08;23.33;;;14.30;;
30948;SDS011;17637;51.984;21.208;2022-10-20T02:41:36;22.65;;;15.73;;
30948;SDS011;17637;51.984;21.208;2022-10-20T02:44:03;18.85;;;13.88;;
30948;SDS011;17637;51.984;21.208;2022-10-20T02:46:30;24.88;;;15.95;;
30948;SDS011;17637;51.984;21.208;2022-10-20T02:48:58;23.40;;;15.98;;
30948;SDS011;17637;51.984;21.208;2022-10-20T02:51:25;18.42;;;12.18;;
30948;SDS011;17637;51.984;21.208;2022-10-20T02:53:53;22.70;;;14.20;;
30948;SDS011;17637;51.984;21.208;2022-10-20T02:56:20;18.48;;;12.35;;
30948;SDS011;17637;51.984;21.208;2022-10-20T02:58:52;21.30;;;15.50;;
30948;SDS011;17637;51.984;21.208;2022-10-20T03:01:20;20.00;;;14.05;;
30948;SDS011;17637;51.984;21.208;2022-10-20T03:03:48;20.50;;;14.32;;
30948;SDS011;17637;51.984;21.208;2022-10-20T03:06:15;23.20;;;15.85;;
30948;SDS011;17637;51.984;21.208;2022-10-20T03:08:42;18.10;;;13.32;;
30948;SDS011;17637;51.984;21.208;2022-10-20T03:11:09;22.63;;;16.17;;
30948;SDS011;17637;51.984;21.208;2022-10-20T03:13:36;23.08;;;14.50;;
30948;SDS011;17637;51.984;21.208;2022-10-20T03:16:03;21.38;;;15.15;;
30948;SDS011;17637;51.984;21.208;2022-10-20T03:18:30;24.38;;;15.77;;
30948;SDS011;17637;51.984;21.208;2022-10-20T03:20:57;21.08;;;14.23;;
30948;SDS011;17637;51.984;21.208;2022-10-20T03:23:24;21.05;;;13.43;;
30948;SDS011;17637;51.984;21.208;2022-10-20T03:25:51;19.40;;;13.55;;
30948;SDS011;17637;51.984;21.208;2022-10-20T03:28:18;19.00;;;13.57;;
30948;SDS011;17637;51.984;21.208;2022-10-20T03:30:45;23.33;;;15.15;;
30948;SDS011;17637;51.984;21.208;2022-10-20T03:33:12;21.02;;;13.80;;
30948;SDS011;17637;51.984;21.208;2022-10-20T03:35:39;21.38;;;14.10;;
30948;SDS011;17637;51.984;21.208;2022-10-20T03:38:06;19.38;;;12.63;;
30948;SDS011;17637;51.984;21.208;2022-10-20T03:40:33;19.10;;;13.63;;
30948;SDS011;17637;51.984;21.208;2022-10-20T03:43:00;23.20;;;14.50;;
30948;SDS011;17637;51.984;21.208;2022-10-20T03:45:27;19.42;;;13.38;;
30948;SDS011;17637;51.984;21.208;2022-10-20T03:47:54;20.40;;;14.50;;
30948;SDS011;17637;51.984;21.208;2022-10-20T03:50:21;25.23;;;16.70;;
30948;SDS011;17637;51.984;21.208;2022-10-20T03:52:49;25.83;;;20.13;;
30948;SDS011;17637;51.984;21.208;2022-10-20T03:55:17;26.23;;;17.05;;
30948;SDS011;17637;51.984;21.208;2022-10-20T03:57:45;23.95;;;17.10;;
30948;SDS011;17637;51.984;21.208;2022-10-20T04:00:12;29.17;;;17.80;;
30948;SDS011;17637;51.984;21.208;2022-10-20T04:02:43;21.02;;;14.15;;
30948;SDS011;17637;51.984;21.208;2022-10-20T04:05:15;20.23;;;14.90;;
30948;SDS011;17637;51.984;21.208;2022-10-20T04:07:43;19.42;;;14.07;;
30948;SDS011;17637;51.984;21.208;2022-10-20T04:10:11;23.83;;;14.15;;
30948;SDS011;17637;51.984;21.208;2022-10-20T04:12:39;17.50;;;12.60;;
30948;SDS011;17637;51.984;21.208;2022-10-20T04:15:07;19.52;;;13.13;;
30948;SDS011;17637;51.984;21.208;2022-10-20T04:17:34;19.00;;;12.85;;
30948;SDS011;17637;51.984;21.208;2022-10-20T04:20:02;19.25;;;13.07;;
30948;SDS011;17637;51.984;21.208;2022-10-20T04:22:30;22.92;;;14.57;;
30948;SDS011;17637;51.984;21.208;2022-10-20T04:24:57;20.00;;;14.23;;
30948;SDS011;17637;51.984;21.208;2022-10-20T04:27:24;23.17;;;15.50;;
30948;SDS011;17637;51.984;21.208;2022-10-20T04:29:51;21.98;;;15.55;;
30948;SDS011;17637;51.984;21.208;2022-10-20T04:32:18;23.13;;;14.82;;
30948;SDS011;17637;51.984;21.208;2022-10-20T04:34:45;27.40;;;17.08;;
30948;SDS011;17637;51.984;21.208;2022-10-20T04:37:12;24.42;;;16.65;;
30948;SDS011;17637;51.984;21.208;2022-10-20T04:39:39;29.35;;;18.33;;
30948;SDS011;17637;51.984;21.208;2022-10-20T04:42:07;30.75;;;19.80;;
30948;SDS011;17637;51.984;21.208;2022-10-20T04:44:34;24.77;;;18.30;;
30948;SDS011;17637;51.984;21.208;2022-10-20T04:47:01;31.02;;;19.10;;
30948;SDS011;17637;51.984;21.208;2022-10-20T04:49:28;27.23;;;16.80;;
30948;SDS011;17637;51.984;21.208;2022-10-20T04:51:55;23.52;;;16.67;;
30948;SDS011;17637;51.984;21.208;2022-10-20T04:54:26;23.33;;;15.98;;
30948;SDS011;17637;51.984;21.208;2022-10-20T04:56:53;20.13;;;14.50;;
30948;SDS011;17637;51.984;21.208;2022-10-20T04:59:20;32.88;;;18.35;;
30948;SDS011;17637;51.984;21.208;2022-10-20T05:01:47;27.73;;;17.77;;
30948;SDS011;17637;51.984;21.208;2022-10-20T05:04:14;29.42;;;17.05;;
30948;SDS011;17637;51.984;21.208;2022-10-20T05:06:48;25.20;;;16.10;;
30948;SDS011;17637;51.984;21.208;2022-10-20T05:09:15;25.30;;;15.38;;
30948;SDS011;17637;51.984;21.208;2022-10-20T05:11:42;30.27;;;17.40;;
30948;SDS011;17637;51.984;21.208;2022-10-20T05:14:09;38.33;;;19.88;;
30948;SDS011;17637;51.984;21.208;2022-10-20T05:16:36;23.60;;;14.60;;
30948;SDS011;17637;51.984;21.208;2022-10-20T05:19:05;27.67;;;17.10;;
30948;SDS011;17637;51.984;21.208;2022-10-20T05:21:32;29.58;;;16.92;;
30948;SDS011;17637;51.984;21.208;2022-10-20T05:24:02;31.50;;;18.48;;
30948;SDS011;17637;51.984;21.208;2022-10-20T05:26:33;29.73;;;17.13;;
30948;SDS011;17637;51.984;21.208;2022-10-20T05:29:03;28.88;;;18.85;;
30948;SDS011;17637;51.984;21.208;2022-10-20T05:31:34;27.95;;;17.95;;
30948;SDS011;17637;51.984;21.208;2022-10-20T05:34:02;30.35;;;19.35;;
30948;SDS011;17637;51.984;21.208;2022-10-20T05:36:29;31.95;;;18.70;;
30948;SDS011;17637;51.984;21.208;2022-10-20T05:38:56;30.38;;;19.40;;
30948;SDS011;17637;51.984;21.208;2022-10-20T05:41:25;33.97;;;19.25;;
30948;SDS011;17637;51.984;21.208;2022-10-20T05:43:59;33.72;;;18.60;;
30948;SDS011;17637;51.984;21.208;2022-10-20T05:46:29;29.55;;;18.58;;
30948;SDS011;17637;51.984;21.208;2022-10-20T05:48:59;35.75;;;20.75;;
30948;SDS011;17637;51.984;21.208;2022-10-20T05:51:29;33.28;;;19.90;;
30948;SDS011;17637;51.984;21.208;2022-10-20T05:53:59;38.85;;;21.23;;
30948;SDS011;17637;51.984;21.208;2022-10-20T05:56:28;31.35;;;20.55;;
30948;SDS011;17637;51.984;21.208;2022-10-20T05:58:58;37.85;;;23.88;;
30948;SDS011;17637;51.984;21.208;2022-10-20T06:01:26;35.47;;;20.10;;
30948;SDS011;17637;51.984;21.208;2022-10-20T06:04:06;31.58;;;20.25;;
30948;SDS011;17637;51.984;21.208;2022-10-20T06:06:34;32.17;;;19.48;;
30948;SDS011;17637;51.984;21.208;2022-10-20T06:09:04;44.08;;;27.15;;
30948;SDS011;17637;51.984;21.208;2022-10-20T06:11:32;49.70;;;35.08;;
30948;SDS011;17637;51.984;21.208;2022-10-20T06:14:05;65.82;;;44.33;;
30948;SDS011;17637;51.984;21.208;2022-10-20T06:16:34;54.42;;;36.70;;
30948;SDS011;17637;51.984;21.208;2022-10-20T06:19:02;43.67;;;30.10;;
30948;SDS011;17637;51.984;21.208;2022-10-20T06:21:30;39.75;;;24.52;;
30948;SDS011;17637;51.984;21.208;2022-10-20T06:23:59;40.85;;;28.27;;
30948;SDS011;17637;51.984;21.208;2022-10-20T06:26:29;45.90;;;27.70;;
30948;SDS011;17637;51.984;21.208;2022-10-20T06:29:02;47.05;;;30.75;;
30948;SDS011;17637;51.984;21.208;2022-10-20T06:31:35;59.20;;;32.80;;
30948;SDS011;17637;51.984;21.208;2022-10-20T06:34:06;51.47;;;31.63;;
30948;SDS011;17637;51.984;21.208;2022-10-20T06:36:36;56.30;;;32.15;;
30948;SDS011;17637;51.984;21.208;2022-10-20T06:39:04;60.58;;;33.90;;
30948;SDS011;17637;51.984;21.208;2022-10-20T06:41:33;35.40;;;22.30;;
30948;SDS011;17637;51.984;21.208;2022-10-20T06:44:00;30.58;;;19.65;;
30948;SDS011;17637;51.984;21.208;2022-10-20T06:46:29;37.20;;;21.67;;
30948;SDS011;17637;51.984;21.208;2022-10-20T06:49:01;39.17;;;23.63;;
30948;SDS011;17637;51.984;21.208;2022-10-20T06:51:29;30.67;;;20.77;;
30948;SDS011;17637;51.984;21.208;2022-10-20T06:53:57;34.83;;;23.75;;
30948;SDS011;17637;51.984;21.208;2022-10-20T06:56:25;39.67;;;24.05;;
30948;SDS011;17637;51.984;21.208;2022-10-20T06:58:54;33.85;;;22.75;;
30948;SDS011;17637;51.984;21.208;2022-10-20T07:01:24;38.42;;;24.02;;
30948;SDS011;17637;51.984;21.208;2022-10-20T07:03:59;44.08;;;24.15;;
30948;SDS011;17637;51.984;21.208;2022-10-20T07:06:32;42.55;;;24.83;;
30948;SDS011;17637;51.984;21.208;2022-10-20T07:09:02;50.13;;;26.65;;
30948;SDS011;17637;51.984;21.208;2022-10-20T07:11:33;56.88;;;24.67;;
30948;SDS011;17637;51.984;21.208;2022-10-20T07:14:01;54.33;;;27.15;;
30948;SDS011;17637;51.984;21.208;2022-10-20T07:16:29;51.78;;;26.05;;
30948;SDS011;17637;51.984;21.208;2022-10-20T07:18:58;50.05;;;25.60;;
30948;SDS011;17637;51.984;21.208;2022-10-20T07:21:26;117.65;;;29.75;;
30948;SDS011;17637;51.984;21.208;2022-10-20T07:24:02;82.28;;;29.27;;
30948;SDS011;17637;51.984;21.208;2022-10-20T07:26:32;82.15;;;25.63;;
30948;SDS011;17637;51.984;21.208;2022-10-20T07:29:01;145.80;;;34.67;;
30948;SDS011;17637;51.984;21.208;2022-10-20T07:31:34;116.57;;;28.67;;
30948;SDS011;17637;51.984;21.208;2022-10-20T07:34:07;68.25;;;28.92;;
30948;SDS011;17637;51.984;21.208;2022-10-20T07:36:53;170.65;;;31.52;;
30948;SDS011;17637;51.984;21.208;2022-10-20T07:39:21;94.03;;;34.20;;
30948;SDS011;17637;51.984;21.208;2022-10-20T07:41:48;104.05;;;30.77;;
30948;SDS011;17637;51.984;21.208;2022-10-20T07:44:16;199.05;;;35.03;;
30948;SDS011;17637;51.984;21.208;2022-10-20T07:46:43;277.98;;;36.13;;
30948;SDS011;17637;51.984;21.208;2022-10-20T07:49:10;153.90;;;33.58;;
30948;SDS011;17637;51.984;21.208;2022-10-20T07:51:58;49.45;;;26.88;;
30948;SDS011;17637;51.984;21.208;2022-10-20T07:54:24;78.05;;;31.70;;
30948;SDS011;17637;51.984;21.208;2022-10-20T07:56:51;86.22;;;32.58;;
30948;SDS011;17637;51.984;21.208;2022-10-20T07:59:19;113.55;;;34.05;;
30948;SDS011;17637;51.984;21.208;2022-10-20T08:01:46;128.95;;;34.30;;
30948;SDS011;17637;51.984;21.208;2022-10-20T08:04:13;116.32;;;36.63;;
30948;SDS011;17637;51.984;21.208;2022-10-20T08:06:40;86.38;;;36.55;;
30948;SDS011;17637;51.984;21.208;2022-10-20T08:09:07;64.75;;;33.28;;
30948;SDS011;17637;51.984;21.208;2022-10-20T08:11:34;72.38;;;35.45;;
30948;SDS011;17637;51.984;21.208;2022-10-20T08:14:01;67.72;;;31.67;;
30948;SDS011;17637;51.984;21.208;2022-10-20T08:16:29;100.18;;;31.38;;
30948;SDS011;17637;51.984;21.208;2022-10-20T08:18:56;62.45;;;31.45;;
30948;SDS011;17637;51.984;21.208;2022-10-20T08:21:30;47.80;;;26.27;;
30948;SDS011;17637;51.984;21.208;2022-10-20T08:23:58;49.63;;;27.27;;
30948;SDS011;17637;51.984;21.208;2022-10-20T08:26:25;63.58;;;30.98;;
30948;SDS011;17637;51.984;21.208;2022-10-20T08:28:53;80.55;;;30.67;;
30948;SDS011;17637;51.984;21.208;2022-10-20T08:31:21;74.80;;;33.03;;
30948;SDS011;17637;51.984;21.208;2022-10-20T08:33:49;57.38;;;28.02;;
30948;SDS011;17637;51.984;21.208;2022-10-20T08:36:18;48.25;;;26.50;;
30948;SDS011;17637;51.984;21.208;2022-10-20T08:38:46;37.60;;;23.88;;
30948;SDS011;17637;51.984;21.208;2022-10-20T08:41:18;36.20;;;23.05;;
30948;SDS011;17637;51.984;21.208;2022-10-20T08:43:51;87.85;;;25.67;;
30948;SDS011;17637;51.984;21.208;2022-10-20T08:46:28;35.58;;;22.88;;
30948;SDS011;17637;51.984;21.208;2022-10-20T08:48:57;39.67;;;23.77;;
30948;SDS011;17637;51.984;21.208;2022-10-20T08:51:33;39.17;;;22.92;;
30948;SDS011;17637;51.984;21.208;2022-10-20T08:54:04;35.45;;;22.33;;
30948;SDS011;17637;51.984;21.208;2022-10-20T08:56:36;32.63;;;21.20;;
30948;SDS011;17637;51.984;21.208;2022-10-20T08:59:12;30.90;;;20.05;;
30948;SDS011;17637;51.984;21.208;2022-10-20T09:01:42;35.47;;;24.05;;
30948;SDS011;17637;51.984;21.208;2022-10-20T09:04:14;27.83;;;18.58;;
30948;SDS011;17637;51.984;21.208;2022-10-20T09:06:46;35.50;;;23.58;;
30948;SDS011;17637;51.984;21.208;2022-10-20T09:09:18;33.47;;;22.15;;
30948;SDS011;17637;51.984;21.208;2022-10-20T09:11:47;43.63;;;25.38;;
30948;SDS011;17637;51.984;21.208;2022-10-20T09:14:14;37.38;;;24.63;;
30948;SDS011;17637;51.984;21.208;2022-10-20T09:16:42;33.88;;;22.90;;
30948;SDS011;17637;51.984;21.208;2022-10-20T09:19:26;40.75;;;26.98;;
30948;SDS011;17637;51.984;21.208;2022-10-20T09:21:57;42.65;;;26.73;;
30948;SDS011;17637;51.984;21.208;2022-10-20T09:24:31;39.20;;;26.17;;
30948;SDS011;17637;51.984;21.208;2022-10-20T09:29:55;32.63;;;22.23;;
30948;SDS011;17637;51.984;21.208;2022-10-20T09:35:17;31.90;;;22.05;;
30948;SDS011;17637;51.984;21.208;2022-10-20T09:37:51;31.15;;;22.33;;
30948;SDS011;17637;51.984;21.208;2022-10-20T09:40:22;29.50;;;19.67;;
30948;SDS011;17637;51.984;21.208;2022-10-20T09:43:14;24.88;;;18.90;;
30948;SDS011;17637;51.984;21.208;2022-10-20T09:45:51;25.10;;;18.50;;
30948;SDS011;17637;51.984;21.208;2022-10-20T09:48:24;29.65;;;19.13;;
30948;SDS011;17637;51.984;21.208;2022-10-20T09:50:55;22.00;;;16.30;;
30948;SDS011;17637;51.984;21.208;2022-10-20T09:53:26;21.27;;;15.82;;
30948;SDS011;17637;51.984;21.208;2022-10-20T09:55:57;22.65;;;16.85;;
30948;SDS011;17637;51.984;21.208;2022-10-20T09:58:26;27.48;;;18.35;;
30948;SDS011;17637;51.984;21.208;2022-10-20T10:00:57;24.77;;;16.90;;
30948;SDS011;17637;51.984;21.208;2022-10-20T10:03:27;28.80;;;19.88;;
30948;SDS011;17637;51.984;21.208;2022-10-20T10:05:55;24.92;;;16.83;;
30948;SDS011;17637;51.984;21.208;2022-10-20T10:08:28;24.15;;;16.02;;
30948;SDS011;17637;51.984;21.208;2022-10-20T10:11:16;23.60;;;16.25;;
30948;SDS011;17637;51.984;21.208;2022-10-20T10:13:46;21.00;;;14.88;;
30948;SDS011;17637;51.984;21.208;2022-10-20T10:16:16;18.73;;;14.60;;
30948;SDS011;17637;51.984;21.208;2022-10-20T10:18:46;22.35;;;16.35;;
30948;SDS011;17637;51.984;21.208;2022-10-20T10:21:23;20.95;;;15.65;;
30948;SDS011;17637;51.984;21.208;2022-10-20T10:23:53;20.35;;;15.20;;
30948;SDS011;17637;51.984;21.208;2022-10-20T10:26:32;20.90;;;15.88;;
30948;SDS011;17637;51.984;21.208;2022-10-20T10:29:22;20.08;;;15.18;;
30948;SDS011;17637;51.984;21.208;2022-10-20T10:31:52;18.90;;;13.30;;
30948;SDS011;17637;51.984;21.208;2022-10-20T10:34:29;16.67;;;12.60;;
30948;SDS011;17637;51.984;21.208;2022-10-20T10:37:03;24.38;;;13.30;;
30948;SDS011;17637;51.984;21.208;2022-10-20T10:39:31;14.40;;;9.75;;
30948;SDS011;17637;51.984;21.208;2022-10-20T10:47:35;12.38;;;9.18;;
30948;SDS011;17637;51.984;21.208;2022-10-20T10:55:39;5.13;;;3.25;;
30948;SDS011;17637;51.984;21.208;2022-10-20T11:01:11;10.70;;;7.13;;
30948;SDS011;17637;51.984;21.208;2022-10-20T11:11:55;4.38;;;2.67;;
30948;SDS011;17637;51.984;21.208;2022-10-20T11:18:05;5.78;;;3.42;;
30948;SDS011;17637;51.984;21.208;2022-10-20T11:20:47;5.32;;;3.20;;
30948;SDS011;17637;51.984;21.208;2022-10-20T11:26:27;6.15;;;3.85;;
30948;SDS011;17637;51.984;21.208;2022-10-20T11:28:58;4.43;;;3.08;;
30948;SDS011;17637;51.984;21.208;2022-10-20T11:31:32;9.80;;;3.45;;
30948;SDS011;17637;51.984;21.208;2022-10-20T11:45:38;5.25;;;2.85;;
30948;SDS011;17637;51.984;21.208;2022-10-20T11:48:29;4.78;;;2.58;;
30948;SDS011;17637;51.984;21.208;2022-10-20T12:11:05;4.22;;;2.67;;
30948;SDS011;17637;51.984;21.208;2022-10-20T12:19:29;3.75;;;2.50;;
30948;SDS011;17637;51.984;21.208;2022-10-20T12:24:41;2.95;;;2.10;;
30948;SDS011;17637;51.984;21.208;2022-10-20T12:29:50;2.83;;;2.08;;
30948;SDS011;17637;51.984;21.208;2022-10-20T12:34:51;3.55;;;2.33;;
30948;SDS011;17637;51.984;21.208;2022-10-20T12:39:51;2.80;;;2.13;;
30948;SDS011;17637;51.984;21.208;2022-10-20T12:42:26;6.32;;;3.45;;
30948;SDS011;17637;51.984;21.208;2022-10-20T12:45:02;3.55;;;2.63;;
30948;SDS011;17637;51.984;21.208;2022-10-20T12:47:33;4.22;;;2.50;;
30948;SDS011;17637;51.984;21.208;2022-10-20T12:53:07;3.50;;;2.10;;
30948;SDS011;17637;51.984;21.208;2022-10-20T12:55:56;2.75;;;2.15;;
30948;SDS011;17637;51.984;21.208;2022-10-20T13:16:44;5.53;;;2.17;;
30948;SDS011;17637;51.984;21.208;2022-10-20T13:19:28;5.47;;;2.28;;
30948;SDS011;17637;51.984;21.208;2022-10-20T13:28:04;4.28;;;2.13;;
30948;SDS011;17637;51.984;21.208;2022-10-20T13:39:27;5.07;;;3.28;;
30948;SDS011;17637;51.984;21.208;2022-10-20T13:42:11;3.78;;;2.78;;
30948;SDS011;17637;51.984;21.208;2022-10-20T13:47:27;4.78;;;2.90;;
30948;SDS011;17637;51.984;21.208;2022-10-20T13:52:39;4.78;;;3.08;;
30948;SDS011;17637;51.984;21.208;2022-10-20T13:55:14;4.70;;;2.22;;
30948;SDS011;17637;51.984;21.208;2022-10-20T13:57:46;3.85;;;2.47;;
30948;SDS011;17637;51.984;21.208;2022-10-20T14:00:27;4.75;;;2.17;;
30948;SDS011;17637;51.984;21.208;2022-10-20T14:02:58;4.20;;;2.63;;
30948;SDS011;17637;51.984;21.208;2022-10-20T14:05:35;3.60;;;2.17;;
30948;SDS011;17637;51.984;21.208;2022-10-20T14:08:10;4.78;;;2.53;;
30948;SDS011;17637;51.984;21.208;2022-10-20T14:10:44;4.80;;;2.95;;
30948;SDS011;17637;51.984;21.208;2022-10-20T14:13:18;7.80;;;3.58;;
30948;SDS011;17637;51.984;21.208;2022-10-20T14:15:49;4.43;;;2.95;;
30948;SDS011;17637;51.984;21.208;2022-10-20T14:21:05;4.00;;;3.00;;
30948;SDS011;17637;51.984;21.208;2022-10-20T14:23:43;7.20;;;4.30;;
30948;SDS011;17637;51.984;21.208;2022-10-20T14:26:13;7.82;;;4.43;;
30948;SDS011;17637;51.984;21.208;2022-10-20T14:28:48;7.25;;;5.05;;
30948;SDS011;17637;51.984;21.208;2022-10-20T14:31:19;12.88;;;7.10;;
30948;SDS011;17637;51.984;21.208;2022-10-20T14:33:49;9.82;;;7.53;;
30948;SDS011;17637;51.984;21.208;2022-10-20T14:36:21;10.13;;;7.40;;
30948;SDS011;17637;51.984;21.208;2022-10-20T14:38:50;7.63;;;5.25;;
30948;SDS011;17637;51.984;21.208;2022-10-20T14:41:37;6.80;;;3.67;;
30948;SDS011;17637;51.984;21.208;2022-10-20T14:44:05;3.75;;;2.63;;
30948;SDS011;17637;51.984;21.208;2022-10-20T14:46:53;8.70;;;3.00;;
30948;SDS011;17637;51.984;21.208;2022-10-20T14:49:29;9.30;;;3.00;;
30948;SDS011;17637;51.984;21.208;2022-10-20T14:52:00;9.43;;;4.32;;
30948;SDS011;17637;51.984;21.208;2022-10-20T14:54:51;17.30;;;9.25;;
30948;SDS011;17637;51.984;21.208;2022-10-20T15:02:20;14.73;;;10.27;;
30948;SDS011;17637;51.984;21.208;2022-10-20T15:04:50;10.57;;;6.97;;
30948;SDS011;17637;51.984;21.208;2022-10-20T15:17:39;16.98;;;11.88;;
30948;SDS011;17637;51.984;21.208;2022-10-20T15:22:56;14.18;;;10.95;;
30948;SDS011;17637;51.984;21.208;2022-10-20T15:25:25;14.27;;;10.15;;
30948;SDS011;17637;51.984;21.208;2022-10-20T15:27:54;14.73;;;11.35;;
30948;SDS011;17637;51.984;21.208;2022-10-20T15:30:23;18.13;;;11.57;;
30948;SDS011;17637;51.984;21.208;2022-10-20T15:32:52;22.50;;;14.80;;
30948;SDS011;17637;51.984;21.208;2022-10-20T15:35:20;20.65;;;14.27;;
30948;SDS011;17637;51.984;21.208;2022-10-20T15:37:53;23.13;;;15.38;;
30948;SDS011;17637;51.984;21.208;2022-10-20T15:40:20;24.92;;;15.88;;
30948;SDS011;17637;51.984;21.208;2022-10-20T15:42:48;22.23;;;15.35;;
30948;SDS011;17637;51.984;21.208;2022-10-20T15:45:16;22.92;;;16.27;;
30948;SDS011;17637;51.984;21.208;2022-10-20T15:47:46;23.17;;;18.15;;
30948;SDS011;17637;51.984;21.208;2022-10-20T15:50:14;22.23;;;16.67;;
30948;SDS011;17637;51.984;21.208;2022-10-20T15:52:45;21.80;;;14.10;;
30948;SDS011;17637;51.984;21.208;2022-10-20T15:55:20;29.90;;;16.85;;
30948;SDS011;17637;51.984;21.208;2022-10-20T15:57:51;19.83;;;12.90;;
30948;SDS011;17637;51.984;21.208;2022-10-20T16:00:20;22.88;;;14.55;;
30948;SDS011;17637;51.984;21.208;2022-10-20T16:02:49;30.13;;;16.67;;
30948;SDS011;17637;51.984;21.208;2022-10-20T16:05:17;30.42;;;18.80;;
30948;SDS011;17637;51.984;21.208;2022-10-20T16:07:46;27.70;;;18.17;;
30948;SDS011;17637;51.984;21.208;2022-10-20T16:10:13;27.35;;;17.45;;
30948;SDS011;17637;51.984;21.208;2022-10-20T16:12:40;25.23;;;15.30;;
30948;SDS011;17637;51.984;21.208;2022-10-20T16:15:08;23.15;;;14.68;;
30948;SDS011;17637;51.984;21.208;2022-10-20T16:17:36;30.30;;;17.00;;
30948;SDS011;17637;51.984;21.208;2022-10-20T16:20:04;27.05;;;15.63;;
30948;SDS011;17637;51.984;21.208;2022-10-20T16:22:33;28.15;;;15.27;;
30948;SDS011;17637;51.984;21.208;2022-10-20T16:25:01;19.02;;;13.10;;
30948;SDS011;17637;51.984;21.208;2022-10-20T16:27:31;18.70;;;13.15;;
30948;SDS011;17637;51.984;21.208;2022-10-20T16:29:59;20.35;;;11.45;;
30948;SDS011;17637;51.984;21.208;2022-10-20T16:32:26;15.40;;;10.82;;
30948;SDS011;17637;51.984;21.208;2022-10-20T16:35:00;22.15;;;12.48;;
30948;SDS011;17637;51.984;21.208;2022-10-20T16:37:30;25.25;;;15.38;;
30948;SDS011;17637;51.984;21.208;2022-10-20T16:39:58;24.63;;;13.50;;
30948;SDS011;17637;51.984;21.208;2022-10-20T16:42:26;21.80;;;14.23;;
30948;SDS011;17637;51.984;21.208;2022-10-20T16:44:56;27.20;;;17.65;;
30948;SDS011;17637;51.984;21.208;2022-10-20T16:47:24;31.33;;;18.48;;
30948;SDS011;17637;51.984;21.208;2022-10-20T16:49:51;35.20;;;19.70;;
30948;SDS011;17637;51.984;21.208;2022-10-20T16:52:19;32.25;;;19.10;;
30948;SDS011;17637;51.984;21.208;2022-10-20T16:54:46;31.70;;;19.00;;
30948;SDS011;17637;51.984;21.208;2022-10-20T16:57:14;31.52;;;18.75;;
30948;SDS011;17637;51.984;21.208;2022-10-20T16:59:41;30.00;;;17.63;;
30948;SDS011;17637;51.984;21.208;2022-10-20T17:02:11;28.95;;;18.52;;
30948;SDS011;17637;51.984;21.208;2022-10-20T17:04:38;32.47;;;17.45;;
30948;SDS011;17637;51.984;21.208;2022-10-20T17:07:06;31.42;;;20.00;;
30948;SDS011;17637;51.984;21.208;2022-10-20T17:09:34;41.30;;;22.55;;
30948;SDS011;17637;51.984;21.208;2022-10-20T17:12:01;38.20;;;23.70;;
30948;SDS011;17637;51.984;21.208;2022-10-20T17:14:28;42.63;;;25.35;;
30948;SDS011;17637;51.984;21.208;2022-10-20T17:16:55;41.90;;;24.63;;
30948;SDS011;17637;51.984;21.208;2022-10-20T17:19:22;39.38;;;25.40;;
30948;SDS011;17637;51.984;21.208;2022-10-20T17:21:49;45.08;;;27.05;;
30948;SDS011;17637;51.984;21.208;2022-10-20T17:24:21;40.80;;;26.88;;
30948;SDS011;17637;51.984;21.208;2022-10-20T17:26:49;40.17;;;26.17;;
30948;SDS011;17637;51.984;21.208;2022-10-20T17:29:17;43.45;;;27.75;;